Catrilo, Argentina
Current Conditions -  °F | °C
As of 9:00 PM on Friday 28 Nov 2014 (Local Time) from SAOC Reporting Station
Scattered Clouds Scattered Clouds  
Wind Chill: 81°   Ceiling: Unl
Heat Index: 81°   Visibility: 6mi
Dew Point: 45°   Wind: 23mph
Humidity: 28%   Direction: 360°N
Pressure: 29.68"   Gusts: NA
Location:  36.43°S, 63.4°W
Report Text: SAOC 290000Z 36020KT 9999 FEW025 SCT10027/07 Q1005
Loading
Personal Weather Stations






























Interactive Weather Map New forecast layout! Learn more

10-Day Weather Forecast

Advertisements
Track Severe Weather on mobile